createdAt,value
2018-02-23T00:01:11.704Z,14.97
2018-02-23T00:03:37.539Z,14.73
2018-02-23T00:06:03.398Z,19.10
2018-02-23T00:08:29.245Z,20.23
2018-02-23T00:10:55.107Z,16.53
2018-02-23T00:13:20.961Z,13.47
2018-02-23T00:15:47.974Z,17.10
2018-02-23T00:18:13.925Z,15.57
2018-02-23T00:20:43.628Z,20.43
2018-02-23T00:23:09.482Z,17.15
2018-02-23T00:25:35.309Z,29.93
2018-02-23T00:28:01.178Z,14.57
2018-02-23T00:30:27.039Z,18.10
2018-02-23T00:32:54.610Z,18.00
2018-02-23T00:35:20.462Z,19.12
2018-02-23T00:37:49.527Z,15.97
2018-02-23T00:40:15.398Z,21.30
2018-02-23T00:42:44.601Z,12.33
2018-02-23T00:45:10.461Z,18.77
2018-02-23T00:47:39.722Z,21.60
2018-02-23T00:50:05.587Z,15.80
2018-02-23T00:52:33.086Z,12.37
2018-02-23T00:54:58.967Z,14.75
2018-02-23T00:57:28.761Z,14.53
2018-02-23T00:59:54.596Z,12.27
2018-02-23T01:02:20.471Z,18.53
2018-02-23T01:04:46.326Z,13.53
2018-02-23T01:07:12.177Z,15.43
2018-02-23T01:09:39.355Z,15.63
2018-02-23T01:12:05.345Z,16.48
2018-02-23T01:14:34.906Z,15.60
2018-02-23T01:17:00.738Z,15.30
2018-02-23T01:19:30.395Z,16.57
2018-02-23T01:21:56.258Z,21.12
2018-02-23T01:24:23.532Z,16.57
2018-02-23T01:26:49.406Z,23.30
2018-02-23T01:29:18.221Z,20.13
2018-02-23T01:31:44.081Z,14.93
2018-02-23T01:34:13.207Z,19.73
2018-02-23T01:36:39.106Z,16.55
2018-02-23T01:39:04.968Z,20.87
2018-02-23T01:41:30.818Z,12.37
2018-02-23T01:43:56.658Z,16.27
2018-02-23T01:46:24.495Z,18.33
2018-02-23T01:48:50.326Z,19.42
2018-02-23T01:53:47.151Z,15.57
2018-02-23T01:56:14.277Z,30.23
2018-02-23T01:58:40.153Z,22.33
2018-02-23T02:01:08.814Z,19.90
2018-02-23T02:03:34.653Z,13.75
2018-02-23T02:06:03.391Z,16.80
2018-02-23T02:08:29.287Z,22.05
2018-02-23T02:13:25.865Z,16.50
2018-02-23T02:15:51.745Z,13.33
2018-02-23T02:18:17.640Z,15.70
2018-02-23T02:20:43.471Z,21.43
2018-02-23T02:23:10.195Z,17.53
2018-02-23T02:25:36.026Z,15.88
2018-02-23T02:28:04.890Z,15.43
2018-02-23T02:30:30.746Z,17.92
2018-02-23T02:32:59.479Z,16.40
2018-02-23T02:35:25.317Z,14.48
2018-02-23T02:37:54.083Z,19.33
2018-02-23T02:40:19.948Z,19.25
2018-02-23T02:42:49.378Z,21.97
2018-02-23T02:45:15.265Z,16.92
2018-02-23T02:47:44.843Z,15.53
2018-02-23T02:50:10.714Z,15.85
2018-02-23T02:52:36.549Z,19.90
2018-02-23T02:55:02.410Z,22.23
2018-02-23T02:57:28.260Z,24.07
2018-02-23T02:59:55.909Z,19.37
2018-02-23T03:02:21.794Z,16.05
2018-02-23T03:04:51.642Z,22.80
2018-02-23T03:07:17.511Z,20.25
2018-02-23T03:09:44.691Z,21.50
2018-02-23T03:12:10.570Z,16.85
2018-02-23T03:14:40.369Z,18.53
2018-02-23T03:17:06.293Z,18.45
2018-02-23T03:19:35.342Z,17.03
2018-02-23T03:22:01.181Z,21.50
2018-02-23T03:24:30.564Z,17.13
2018-02-23T03:26:56.410Z,19.92
2018-02-23T03:29:22.275Z,25.57
2018-02-23T03:31:48.797Z,23.70
2018-02-23T03:34:14.734Z,18.42
2018-02-23T03:36:40.591Z,21.47
2018-02-23T03:39:06.429Z,17.97
2018-02-23T03:41:36.051Z,17.97
2018-02-23T03:44:01.894Z,25.88
2018-02-23T03:46:30.826Z,17.47
2018-02-23T03:48:56.660Z,18.20
2018-02-23T03:51:27.626Z,17.33
2018-02-23T03:53:53.534Z,16.52
2018-02-23T03:56:19.401Z,24.97
2018-02-23T03:58:45.267Z,19.27
2018-02-23T04:01:13.897Z,14.30
2018-02-23T04:03:39.765Z,18.08
2018-02-23T04:06:05.730Z,15.13
2018-02-23T04:08:31.496Z,17.87
2018-02-23T04:10:57.340Z,18.50
2018-02-23T04:13:26.881Z,24.57
2018-02-23T04:15:52.745Z,18.12
2018-02-23T04:18:21.728Z,22.17
2018-02-23T04:20:47.607Z,19.02
2018-02-23T04:23:16.618Z,27.53
2018-02-23T04:25:42.477Z,17.67
2018-02-23T04:28:12.055Z,20.27
2018-02-23T04:30:37.912Z,19.60
2018-02-23T04:33:05.173Z,18.33
2018-02-23T04:35:31.025Z,21.60
2018-02-23T04:38:00.103Z,17.23
2018-02-23T04:40:25.982Z,22.15
2018-02-23T04:42:51.807Z,17.13
2018-02-23T04:45:17.683Z,21.07
2018-02-23T04:47:43.547Z,28.20
2018-02-23T04:50:12.821Z,21.73
2018-02-23T04:52:38.750Z,22.62
2018-02-23T04:55:06.088Z,21.27
2018-02-23T04:57:31.937Z,20.52
2018-02-23T05:00:00.595Z,23.93
2018-02-23T05:02:27.095Z,27.52
2018-02-23T05:04:56.296Z,23.00
2018-02-23T05:07:22.422Z,20.17
2018-02-23T05:09:51.589Z,17.62
2018-02-23T05:12:17.424Z,29.27
2018-02-23T05:14:46.485Z,23.30
2018-02-23T05:17:12.332Z,24.65
2018-02-23T05:19:38.190Z,20.50
2018-02-23T05:22:05.979Z,18.40
2018-02-23T05:24:31.832Z,19.87
2018-02-23T05:26:57.722Z,21.07
2018-02-23T05:29:23.580Z,23.33
2018-02-23T05:31:51.047Z,22.03
2018-02-23T05:34:16.920Z,22.00
2018-02-23T05:36:45.573Z,24.93
2018-02-23T05:39:11.412Z,19.62
2018-02-23T05:41:40.241Z,19.80
2018-02-23T05:44:06.104Z,19.20
2018-02-23T05:49:02.875Z,21.67
2018-02-23T05:51:30.055Z,20.73
2018-02-23T05:56:47.879Z,20.70
2018-02-23T05:59:13.719Z,22.80
2018-02-23T06:01:39.602Z,42.20
2018-02-23T06:04:05.491Z,31.77
2018-02-23T06:06:31.386Z,19.47
2018-02-23T06:08:57.239Z,24.30
2018-02-23T06:11:23.167Z,29.70
2018-02-23T06:13:49.055Z,24.13
2018-02-23T06:16:21.072Z,26.50
2018-02-23T06:18:53.124Z,29.02
2018-02-23T06:21:18.992Z,26.15
2018-02-23T06:23:44.841Z,31.50
2018-02-23T06:26:10.703Z,36.10
2018-02-23T06:28:36.553Z,23.23
2018-02-23T06:31:02.460Z,27.73
2018-02-23T06:33:28.300Z,25.23
2018-02-23T06:35:54.134Z,23.83
2018-02-23T06:38:19.981Z,27.57
2018-02-23T06:40:45.837Z,27.67
2018-02-23T06:43:11.817Z,25.47
2018-02-23T06:45:37.697Z,32.70
2018-02-23T06:48:03.554Z,22.80
2018-02-23T06:50:29.427Z,20.70
2018-02-23T06:52:55.271Z,27.80
2018-02-23T06:55:21.158Z,25.70
2018-02-23T06:57:47.048Z,25.30
2018-02-23T07:00:12.881Z,26.40
2018-02-23T07:02:38.749Z,27.33
2018-02-23T07:05:04.783Z,27.90
2018-02-23T07:07:30.831Z,28.42
2018-02-23T07:09:57.050Z,28.27
2018-02-23T07:12:22.913Z,25.20
2018-02-23T07:14:48.764Z,32.90
2018-02-23T07:17:14.663Z,25.67
2018-02-23T07:19:40.517Z,27.83
2018-02-23T07:22:07.108Z,26.60
2018-02-23T07:24:32.956Z,29.65
2018-02-23T07:27:01.663Z,25.97
2018-02-23T07:29:27.514Z,24.05
2018-02-23T07:34:24.289Z,27.00
2018-02-23T07:36:51.770Z,24.97
2018-02-23T07:39:17.636Z,35.15
2018-02-23T07:41:46.816Z,23.50
2018-02-23T07:44:12.671Z,35.92
2018-02-23T07:46:38.550Z,27.90
2018-02-23T07:49:04.379Z,27.10
2018-02-23T07:51:30.250Z,23.43
2018-02-23T07:53:58.030Z,28.60
2018-02-23T07:56:23.900Z,28.95
2018-02-23T07:58:52.894Z,27.77
2018-02-23T08:01:18.750Z,28.05
2018-02-23T08:03:47.759Z,26.47
2018-02-23T08:06:13.652Z,35.03
2018-02-23T08:11:04.029Z,36.83
2018-02-23T08:13:29.889Z,32.28
2018-02-23T08:15:58.557Z,28.17
2018-02-23T08:18:24.407Z,29.25
2018-02-23T08:23:21.194Z,32.20
2018-02-23T08:25:49.055Z,27.70
2018-02-23T08:28:14.914Z,34.13
2018-02-23T08:30:44.450Z,23.97
2018-02-23T08:33:10.311Z,38.40
2018-02-23T08:35:39.301Z,31.60
2018-02-23T08:38:05.176Z,27.40
2018-02-23T08:40:32.564Z,28.50
2018-02-23T08:42:58.407Z,28.95
2018-02-23T08:45:28.039Z,30.17
2018-02-23T08:47:53.908Z,36.47
2018-02-23T08:50:21.778Z,30.27
2018-02-23T08:52:47.649Z,31.25
2018-02-23T08:55:16.267Z,28.63
2018-02-23T08:57:42.125Z,31.75
2018-02-23T09:00:15.197Z,31.73
2018-02-23T09:02:41.054Z,37.85
2018-02-23T09:05:06.906Z,32.50
2018-02-23T09:07:32.750Z,29.93
2018-02-23T09:09:58.607Z,33.40
2018-02-23T09:12:24.478Z,27.80
2018-02-23T09:14:50.393Z,36.23
2018-02-23T09:17:17.763Z,32.40
2018-02-23T09:19:43.587Z,31.65
2018-02-23T09:22:12.390Z,31.33
2018-02-23T09:24:38.239Z,33.50
2018-02-23T09:27:07.640Z,29.40
2018-02-23T09:29:33.506Z,40.50
2018-02-23T09:32:11.809Z,28.60
2018-02-23T09:34:41.718Z,32.88
2018-02-23T09:37:07.561Z,31.98
2018-02-23T09:39:33.424Z,37.03
2018-02-23T09:41:59.307Z,29.37
2018-02-23T09:44:25.180Z,34.20
2018-02-23T09:46:51.020Z,34.77
2018-02-23T09:49:16.857Z,29.73
2018-02-23T09:51:42.731Z,37.20
2018-02-23T09:54:08.585Z,38.97
2018-02-23T09:56:34.447Z,35.67
2018-02-23T09:59:00.297Z,38.50
2018-02-23T10:01:26.150Z,33.37
2018-02-23T10:03:52.312Z,41.43
2018-02-23T10:06:18.172Z,35.55
2018-02-23T10:11:14.863Z,36.83
2018-02-23T10:13:40.717Z,30.97
2018-02-23T10:16:06.603Z,34.40
2018-02-23T10:18:32.478Z,32.63
2018-02-23T10:20:58.652Z,43.40
2018-02-23T10:23:24.500Z,34.45
2018-02-23T10:25:53.145Z,37.33
2018-02-23T10:28:19.022Z,37.20
2018-02-23T10:30:44.865Z,38.67
2018-02-23T10:33:15.855Z,34.17
2018-02-23T10:35:43.094Z,38.30
2018-02-23T10:38:08.961Z,39.50
2018-02-23T10:40:38.052Z,45.37
2018-02-23T10:43:03.924Z,42.15
2018-02-23T10:45:32.819Z,37.77
2018-02-23T10:47:58.688Z,40.67
2018-02-23T10:50:24.544Z,40.60
2018-02-23T10:52:50.393Z,38.63
2018-02-23T10:55:16.237Z,36.97
2018-02-23T10:57:45.153Z,35.73
2018-02-23T11:00:11.092Z,40.60
2018-02-23T11:02:40.633Z,48.43
2018-02-23T11:05:06.514Z,35.53
2018-02-23T11:07:33.819Z,35.80
2018-02-23T11:09:59.710Z,42.10
2018-02-23T11:12:29.888Z,37.10
2018-02-23T11:14:55.719Z,35.05
2018-02-23T11:17:22.944Z,39.60
2018-02-23T11:19:48.827Z,39.28
2018-02-23T11:22:17.448Z,36.47
2018-02-23T11:24:43.284Z,43.92
2018-02-23T11:27:09.136Z,35.20
2018-02-23T11:29:35.016Z,37.47
2018-02-23T11:32:00.882Z,39.80
2018-02-23T11:34:30.361Z,45.23
2018-02-23T11:36:56.227Z,37.35
2018-02-23T11:39:25.222Z,37.20
2018-02-23T11:41:51.097Z,42.38
2018-02-23T11:44:20.508Z,40.83
2018-02-23T11:46:46.362Z,44.05
2018-02-23T11:49:13.543Z,38.50
2018-02-23T11:51:39.381Z,44.53
2018-02-23T11:56:36.181Z,39.00
2018-02-23T11:59:03.752Z,37.07
2018-02-23T12:01:29.609Z,40.22
2018-02-23T12:03:55.551Z,40.30
2018-02-23T12:06:21.436Z,39.00
2018-02-23T12:08:47.308Z,36.60
2018-02-23T12:11:16.409Z,44.10
2018-02-23T12:13:42.271Z,39.05
2018-02-23T12:16:09.731Z,38.20
2018-02-23T12:18:35.633Z,36.13
2018-02-23T12:21:04.402Z,39.33
2018-02-23T12:23:30.263Z,34.47
2018-02-23T12:25:58.891Z,39.20
2018-02-23T12:28:24.805Z,42.08
2018-02-23T12:30:53.673Z,47.73
2018-02-23T12:33:19.535Z,45.55
2018-02-23T12:35:49.145Z,38.00
2018-02-23T12:38:15.032Z,40.83
2018-02-23T12:40:40.930Z,41.33
2018-02-23T12:43:06.811Z,43.23
2018-02-23T12:45:32.700Z,40.73
2018-02-23T12:48:00.124Z,40.07
2018-02-23T12:50:25.993Z,38.15
2018-02-23T12:52:55.381Z,48.53
2018-02-23T12:55:21.286Z,37.90
2018-02-23T12:57:51.007Z,44.73
2018-02-23T13:00:16.946Z,42.05
2018-02-23T13:02:45.893Z,43.07
2018-02-23T13:05:11.798Z,82.45
2018-02-23T13:07:39.289Z,41.43
2018-02-23T13:10:05.183Z,41.95
2018-02-23T13:12:34.653Z,44.70
2018-02-23T13:15:06.708Z,53.63
2018-02-23T13:17:32.544Z,39.63
2018-02-23T13:19:58.422Z,43.97
2018-02-23T13:22:24.299Z,47.33
2018-02-23T13:24:50.215Z,40.80
2018-02-23T13:27:19.070Z,42.77
2018-02-23T13:29:44.933Z,44.63
2018-02-23T13:32:10.844Z,41.00
2018-02-23T13:34:36.720Z,38.97
2018-02-23T13:37:02.594Z,37.20
2018-02-23T13:39:29.993Z,36.73
2018-02-23T13:41:55.925Z,41.92
2018-02-23T13:44:24.889Z,34.30
2018-02-23T13:46:50.791Z,51.47
2018-02-23T13:49:20.114Z,43.37
2018-02-23T13:51:45.996Z,40.42
2018-02-23T13:54:18.072Z,43.53
2018-02-23T13:56:43.979Z,42.80
2018-02-23T13:59:09.888Z,42.63
2018-02-23T14:01:35.774Z,42.23
2018-02-23T14:04:01.635Z,40.87
2018-02-23T14:06:29.388Z,40.63
2018-02-23T14:08:55.198Z,43.87
2018-02-23T14:11:21.036Z,40.47
2018-02-23T14:13:46.894Z,44.43
2018-02-23T14:16:15.740Z,43.80
2018-02-23T14:18:41.608Z,37.88
2018-02-23T14:21:11.125Z,37.37
2018-02-23T14:23:36.978Z,38.60
2018-02-23T14:26:04.346Z,40.33
2018-02-23T14:28:30.222Z,45.55
2018-02-23T14:30:56.064Z,43.23
2018-02-23T14:33:21.970Z,40.87
2018-02-23T14:35:47.856Z,40.23
2018-02-23T14:38:17.786Z,46.67
2018-02-23T14:40:43.680Z,47.75
2018-02-23T14:43:10.932Z,36.17
2018-02-23T14:45:36.848Z,35.53
2018-02-23T14:48:05.615Z,47.70
2018-02-23T14:50:43.900Z,37.80
2018-02-23T14:53:09.785Z,48.35
2018-02-23T14:55:35.650Z,44.37
2018-02-23T14:58:01.732Z,64.93
2018-02-23T15:00:27.912Z,46.25
2018-02-23T15:02:54.064Z,51.30
2018-02-23T15:05:19.960Z,43.90
2018-02-23T15:07:45.835Z,39.63
2018-02-23T15:10:11.705Z,44.60
2018-02-23T15:12:37.555Z,39.20
2018-02-23T15:15:03.464Z,35.60
2018-02-23T15:17:29.306Z,36.40
2018-02-23T15:19:56.783Z,40.67
2018-02-23T15:22:22.651Z,45.53
2018-02-23T15:24:52.031Z,39.03
2018-02-23T15:27:17.933Z,43.67
2018-02-23T15:29:47.239Z,46.20
2018-02-23T15:32:28.607Z,45.33
2018-02-23T15:34:55.255Z,42.75
2018-02-23T15:37:21.553Z,42.90
2018-02-23T15:39:47.424Z,43.80
2018-02-23T15:42:14.270Z,41.17
2018-02-23T15:44:40.292Z,46.78
2018-02-23T15:47:06.170Z,37.80
2018-02-23T15:52:30.003Z,39.90
2018-02-23T15:54:55.871Z,43.73
2018-02-23T15:57:27.596Z,49.23
2018-02-23T15:59:53.473Z,43.97
2018-02-23T16:02:19.377Z,32.63
2018-02-23T16:04:45.254Z,36.20
2018-02-23T16:07:11.101Z,44.40
2018-02-23T16:09:36.948Z,40.20
2018-02-23T16:12:02.852Z,39.97
2018-02-23T16:14:28.748Z,37.13
2018-02-23T16:16:54.693Z,36.23
2018-02-23T16:19:20.584Z,41.90
2018-02-23T16:21:46.438Z,40.40
2018-02-23T16:24:12.278Z,47.10
2018-02-23T16:26:38.155Z,39.93
2018-02-23T16:29:04.057Z,36.80
2018-02-23T16:31:29.922Z,43.23
2018-02-23T16:33:55.806Z,38.13
2018-02-23T16:36:21.695Z,36.20
2018-02-23T16:38:47.534Z,36.00
2018-02-23T16:41:13.378Z,41.33
2018-02-23T16:43:39.237Z,45.17
2018-02-23T16:46:05.082Z,39.20
2018-02-23T16:48:31.631Z,41.83
2018-02-23T16:50:57.668Z,38.60
2018-02-23T16:53:23.793Z,34.33
2018-02-23T16:55:50.546Z,38.08
2018-02-23T16:58:16.487Z,44.60
2018-02-23T17:00:42.329Z,47.00
2018-02-23T17:03:08.209Z,35.60
2018-02-23T17:05:34.027Z,33.50
2018-02-23T17:07:59.882Z,38.77
2018-02-23T17:10:25.791Z,41.40
2018-02-23T17:12:51.629Z,40.77
2018-02-23T17:15:17.482Z,39.93
2018-02-23T17:17:43.331Z,40.17
2018-02-23T17:20:09.237Z,36.33
2018-02-23T17:22:35.099Z,39.47
2018-02-23T17:25:00.934Z,42.60
2018-02-23T17:27:26.797Z,67.60
2018-02-23T17:29:52.621Z,59.53
2018-02-23T17:32:18.475Z,40.23
2018-02-23T17:34:44.333Z,33.23
2018-02-23T17:37:10.205Z,36.23
2018-02-23T17:39:36.059Z,39.13
2018-02-23T17:42:02.318Z,43.20
2018-02-23T17:44:28.181Z,41.80
2018-02-23T17:49:25.052Z,39.28
2018-02-23T17:51:52.501Z,33.90
2018-02-23T17:54:18.472Z,35.22
2018-02-23T17:56:47.536Z,39.30
2018-02-23T18:02:04.608Z,37.47
2018-02-23T18:04:30.474Z,38.93
2018-02-23T18:09:46.524Z,40.92
2018-02-23T18:12:12.396Z,39.30
2018-02-23T18:14:38.283Z,44.23
2018-02-23T18:17:04.250Z,88.40
2018-02-23T18:19:30.165Z,98.45
2018-02-23T18:21:56.072Z,50.03
2018-02-23T18:24:22.014Z,41.90
2018-02-23T18:26:47.954Z,36.40
2018-02-23T18:29:13.907Z,32.17
2018-02-23T18:31:39.809Z,34.33
2018-02-23T18:36:46.666Z,45.20
2018-02-23T18:39:12.633Z,36.45
2018-02-23T18:41:38.570Z,44.80
2018-02-23T18:44:04.499Z,46.13
2018-02-23T18:46:30.457Z,38.87
2018-02-23T18:48:56.411Z,35.73
2018-02-23T18:51:22.272Z,31.50
2018-02-23T18:53:48.204Z,41.13
2018-02-23T18:56:14.105Z,36.33
2018-02-23T18:58:40.080Z,39.07
2018-02-23T19:01:06.027Z,37.05
2018-02-23T19:03:31.904Z,35.37
2018-02-23T19:05:57.971Z,33.00
2018-02-23T19:08:23.885Z,32.58
2018-02-23T19:10:49.774Z,43.33
2018-02-23T19:13:15.717Z,36.63
2018-02-23T19:15:41.659Z,42.03
2018-02-23T19:18:07.537Z,39.83
2018-02-23T19:20:33.468Z,33.20
2018-02-23T19:22:59.399Z,38.73
2018-02-23T19:25:25.349Z,35.23
2018-02-23T19:27:51.270Z,36.67
2018-02-23T19:30:17.186Z,32.77
2018-02-23T19:32:43.068Z,38.60
2018-02-23T19:35:09.009Z,33.63
2018-02-23T19:37:34.907Z,34.67
2018-02-23T19:40:00.854Z,30.20
2018-02-23T19:42:26.747Z,36.30
2018-02-23T19:44:52.721Z,46.80
2018-02-23T19:47:18.582Z,33.10
2018-02-23T19:49:44.455Z,39.07
2018-02-23T19:52:10.405Z,37.83
2018-02-23T19:54:36.347Z,32.37
2018-02-23T19:57:02.256Z,39.93
2018-02-23T19:59:28.206Z,39.60
2018-02-23T20:01:54.120Z,37.27
2018-02-23T20:04:20.051Z,37.60
2018-02-23T20:06:45.938Z,32.60
2018-02-23T20:09:11.881Z,41.93
2018-02-23T20:14:29.663Z,41.55
2018-02-23T20:16:55.570Z,42.33
2018-02-23T20:19:21.483Z,38.90
2018-02-23T20:21:47.407Z,40.70
2018-02-23T20:24:13.328Z,37.93
2018-02-23T20:26:39.220Z,34.07
2018-02-23T20:29:05.178Z,42.30
2018-02-23T20:31:31.159Z,47.53
2018-02-23T20:33:57.106Z,37.67
2018-02-23T20:36:23.006Z,37.87
2018-02-23T20:38:48.967Z,38.30
2018-02-23T20:41:14.886Z,39.13
2018-02-23T20:43:40.812Z,33.63
2018-02-23T20:46:06.680Z,39.60
2018-02-23T20:48:33.311Z,38.20
2018-02-23T20:50:59.258Z,42.80
2018-02-23T20:53:25.186Z,44.43
2018-02-23T20:55:51.104Z,42.53
2018-02-23T20:58:17.029Z,37.00
2018-02-23T21:00:42.978Z,47.17
2018-02-23T21:03:08.882Z,41.50
2018-02-23T21:05:34.825Z,42.03
2018-02-23T21:08:00.744Z,42.07
2018-02-23T21:10:26.702Z,38.07
2018-02-23T21:12:52.628Z,35.13
2018-02-23T21:15:18.562Z,55.43
2018-02-23T21:17:44.482Z,40.37
2018-02-23T21:20:10.397Z,45.63
2018-02-23T21:22:36.340Z,37.60
2018-02-23T21:25:02.262Z,53.60
2018-02-23T21:27:29.470Z,53.37
2018-02-23T21:29:55.406Z,49.03
2018-02-23T21:32:24.670Z,50.40
2018-02-23T21:34:50.596Z,59.60
2018-02-23T21:37:20.166Z,44.80
2018-02-23T21:39:46.091Z,49.92
2018-02-23T21:42:13.569Z,51.30
2018-02-23T21:44:45.527Z,49.08
2018-02-23T21:47:11.511Z,47.30
2018-02-23T21:49:37.387Z,50.45
2018-02-23T21:52:03.269Z,58.27
2018-02-23T21:54:29.210Z,41.80
2018-02-23T21:56:55.160Z,44.47
2018-02-23T21:59:21.071Z,45.53
2018-02-23T22:01:46.967Z,54.10
2018-02-23T22:04:16.016Z,48.50
2018-02-23T22:06:41.890Z,49.97
2018-02-23T22:09:09.147Z,49.63
2018-02-23T22:11:35.058Z,53.17
2018-02-23T22:14:04.469Z,49.50
2018-02-23T22:16:30.336Z,55.67
2018-02-23T22:18:59.544Z,49.00
2018-02-23T22:21:25.434Z,61.83
2018-02-23T22:23:54.810Z,40.27
2018-02-23T22:26:20.722Z,53.65
2018-02-23T22:28:46.654Z,45.37
2018-02-23T22:31:12.560Z,48.30
2018-02-23T22:33:38.496Z,36.60
2018-02-23T22:36:04.992Z,44.70
2018-02-23T22:38:30.917Z,46.80
2018-02-23T22:40:59.654Z,46.73
2018-02-23T22:43:25.582Z,40.60
2018-02-23T22:45:54.511Z,45.97
2018-02-23T22:48:20.434Z,48.28
2018-02-23T22:50:49.560Z,51.27
2018-02-23T22:53:15.518Z,45.67
2018-02-23T22:55:45.066Z,50.35
2018-02-23T22:58:10.980Z,40.60
2018-02-23T23:00:40.516Z,45.00
2018-02-23T23:03:06.430Z,44.88
2018-02-23T23:05:32.355Z,49.13
2018-02-23T23:07:58.233Z,44.77
2018-02-23T23:10:24.126Z,49.83
2018-02-23T23:12:50.803Z,48.60
2018-02-23T23:15:16.726Z,52.92
2018-02-23T23:17:46.066Z,53.10
2018-02-23T23:20:11.940Z,47.08
2018-02-23T23:22:41.212Z,46.37
2018-02-23T23:25:07.108Z,47.72
2018-02-23T23:27:34.519Z,44.70
2018-02-23T23:30:00.424Z,46.30
2018-02-23T23:32:29.918Z,50.33
2018-02-23T23:34:55.863Z,48.28
2018-02-23T23:37:24.783Z,56.20
2018-02-23T23:39:50.671Z,46.60
2018-02-23T23:42:16.621Z,47.77
2018-02-23T23:44:42.526Z,45.00
2018-02-23T23:47:08.425Z,44.40
2018-02-23T23:49:35.564Z,54.13
2018-02-23T23:52:01.464Z,43.95
2018-02-23T23:54:30.644Z,44.07
2018-02-23T23:56:56.574Z,47.70
2018-02-23T23:59:26.219Z,44.40
